createdAt,value
2023-05-05T00:02:24.588Z,13.67
2023-05-05T00:04:51.064Z,13.68
2023-05-05T00:07:17.473Z,13.67
2023-05-05T00:09:44.500Z,13.65
2023-05-05T00:12:10.952Z,13.62
2023-05-05T00:14:37.399Z,13.59
2023-05-05T00:17:04.164Z,13.56
2023-05-05T00:19:31.125Z,13.45
2023-05-05T00:21:57.583Z,13.42
2023-05-05T00:24:24.189Z,13.42
2023-05-05T00:26:51.120Z,13.43
2023-05-05T00:29:17.578Z,13.43
2023-05-05T00:31:44.131Z,13.43
2023-05-05T00:34:11.037Z,13.39
2023-05-05T00:36:37.477Z,13.41
2023-05-05T00:39:03.935Z,13.38
2023-05-05T00:41:30.407Z,13.34
2023-05-05T00:43:56.844Z,13.30
2023-05-05T00:46:26.009Z,13.34
2023-05-05T00:48:53.320Z,13.34
2023-05-05T00:51:20.932Z,13.34
2023-05-05T00:53:50.667Z,13.30
2023-05-05T00:56:19.458Z,13.33
2023-05-05T00:58:46.028Z,13.35
2023-05-05T01:01:12.628Z,13.38
2023-05-05T01:03:40.488Z,13.36
2023-05-05T01:06:30.344Z,13.35
2023-05-05T01:09:20.463Z,13.31
2023-05-05T01:11:58.055Z,13.29
2023-05-05T01:14:48.329Z,13.29
2023-05-05T01:17:21.043Z,13.15
2023-05-05T01:20:00.074Z,13.06
2023-05-05T01:22:39.435Z,13.11
2023-05-05T01:25:30.028Z,13.09
2023-05-05T01:28:15.449Z,13.09
2023-05-05T01:31:03.834Z,13.11
2023-05-05T01:33:36.744Z,13.11
2023-05-05T01:36:10.847Z,13.09
2023-05-05T01:38:43.910Z,13.10
2023-05-05T01:41:18.213Z,13.12
2023-05-05T01:43:50.220Z,13.15
2023-05-05T01:46:19.214Z,13.18
2023-05-05T01:48:48.900Z,13.19
2023-05-05T01:51:18.404Z,13.17
2023-05-05T01:53:47.178Z,13.20
2023-05-05T01:56:15.924Z,13.23
2023-05-05T01:58:45.070Z,13.22
2023-05-05T02:01:13.399Z,13.19
2023-05-05T02:03:42.008Z,13.18
2023-05-05T02:06:10.263Z,13.18
2023-05-05T02:08:39.274Z,13.21
2023-05-05T02:11:08.321Z,13.21
2023-05-05T02:13:36.801Z,13.21
2023-05-05T02:16:05.706Z,13.20
2023-05-05T02:18:35.793Z,13.25
2023-05-05T02:21:03.752Z,13.33
2023-05-05T02:23:30.736Z,13.35
2023-05-05T02:26:06.481Z,13.42
2023-05-05T02:28:38.768Z,13.52
2023-05-05T02:31:07.671Z,13.58
2023-05-05T02:33:36.599Z,13.66
2023-05-05T02:36:12.654Z,13.71
2023-05-05T02:38:43.506Z,13.73
2023-05-05T02:41:16.535Z,13.77
2023-05-05T02:43:44.256Z,13.84
2023-05-05T02:46:11.167Z,13.87
2023-05-05T02:48:37.670Z,13.88
2023-05-05T02:51:04.282Z,13.85
2023-05-05T02:53:30.969Z,13.90
2023-05-05T02:56:06.955Z,14.03
2023-05-05T02:58:48.775Z,14.12
2023-05-05T03:01:39.988Z,14.20
2023-05-05T03:04:08.594Z,14.30
2023-05-05T03:06:48.719Z,14.30
2023-05-05T03:09:37.682Z,14.37
2023-05-05T03:12:07.161Z,14.44
2023-05-05T03:14:41.843Z,14.48
2023-05-05T03:17:11.862Z,14.49
2023-05-05T03:19:41.696Z,14.55
2023-05-05T03:22:08.867Z,14.65
2023-05-05T03:24:35.424Z,14.64
2023-05-05T03:27:02.728Z,14.68
2023-05-05T03:29:30.096Z,14.69
2023-05-05T03:31:56.724Z,14.71
2023-05-05T03:34:23.193Z,14.66
2023-05-05T03:36:49.676Z,14.64
2023-05-05T03:39:16.371Z,14.67
2023-05-05T03:41:42.815Z,14.60
2023-05-05T03:44:09.265Z,14.57
2023-05-05T03:46:35.983Z,14.59
2023-05-05T03:49:02.487Z,14.56
2023-05-05T03:51:28.912Z,14.54
2023-05-05T03:53:55.428Z,14.58
2023-05-05T03:56:21.969Z,14.59
2023-05-05T03:58:48.480Z,14.56
2023-05-05T04:01:14.934Z,14.48
2023-05-05T04:03:41.484Z,14.32
2023-05-05T04:06:08.111Z,14.25
2023-05-05T04:08:34.653Z,14.23
2023-05-05T04:11:03.625Z,14.19
2023-05-05T04:13:30.146Z,14.09
2023-05-05T04:15:56.696Z,14.09
2023-05-05T04:18:23.224Z,14.06
2023-05-05T04:20:49.676Z,14.02
2023-05-05T04:23:16.165Z,13.90
2023-05-05T04:25:42.847Z,13.85
2023-05-05T04:28:09.339Z,13.81
2023-05-05T04:30:35.791Z,13.77
2023-05-05T04:33:02.282Z,13.71
2023-05-05T04:35:28.755Z,13.62
2023-05-05T04:37:55.557Z,13.53
2023-05-05T04:40:22.147Z,13.46
2023-05-05T04:42:48.642Z,13.46
2023-05-05T04:45:15.193Z,13.49
2023-05-05T04:47:42.057Z,13.53
2023-05-05T04:50:09.522Z,13.48
2023-05-05T04:52:36.194Z,13.37
2023-05-05T04:55:02.723Z,13.32
2023-05-05T04:57:30.350Z,13.32
2023-05-05T04:59:56.918Z,13.36
2023-05-05T05:02:23.617Z,13.28
2023-05-05T05:04:50.138Z,13.33
2023-05-05T05:07:16.639Z,13.31
2023-05-05T05:09:43.130Z,13.37
2023-05-05T05:12:09.791Z,13.41
2023-05-05T05:14:37.801Z,13.39
2023-05-05T05:17:07.490Z,13.46
2023-05-05T05:19:34.320Z,13.55
2023-05-05T05:22:00.815Z,13.61
2023-05-05T05:24:27.290Z,13.67
2023-05-05T05:26:53.866Z,13.74
2023-05-05T05:29:20.466Z,13.79
2023-05-05T05:31:46.995Z,13.80
2023-05-05T05:34:16.126Z,13.92
2023-05-05T05:36:42.626Z,14.01
2023-05-05T05:39:09.151Z,14.04
2023-05-05T05:41:35.657Z,14.10
2023-05-05T05:44:02.081Z,14.19
2023-05-05T05:46:28.564Z,14.16
2023-05-05T05:48:55.145Z,14.12
2023-05-05T05:51:21.566Z,14.22
2023-05-05T05:53:48.104Z,14.29
2023-05-05T05:56:14.537Z,14.36
2023-05-05T05:58:41.041Z,14.44
2023-05-05T06:01:07.551Z,14.52
2023-05-05T06:03:34.496Z,14.53
2023-05-05T06:06:01.136Z,14.53
2023-05-05T06:08:27.683Z,14.63
2023-05-05T06:10:54.193Z,14.67
2023-05-05T06:13:22.235Z,14.76
2023-05-05T06:15:48.763Z,14.88
2023-05-05T06:18:15.328Z,14.83
2023-05-05T06:20:43.356Z,14.88
2023-05-05T06:23:09.797Z,14.97
2023-05-05T06:25:36.362Z,15.11
2023-05-05T06:28:02.798Z,15.14
2023-05-05T06:30:29.725Z,15.18
2023-05-05T06:32:56.286Z,15.27
2023-05-05T06:35:23.271Z,15.36
2023-05-05T06:37:49.752Z,15.45
2023-05-05T06:40:16.328Z,15.50
2023-05-05T06:42:42.857Z,15.48
2023-05-05T06:45:09.654Z,15.58
2023-05-05T06:47:36.448Z,15.71
2023-05-05T06:50:03.771Z,15.71
2023-05-05T06:52:30.311Z,15.97
2023-05-05T06:54:56.881Z,16.01
2023-05-05T06:57:23.488Z,16.12
2023-05-05T06:59:50.045Z,16.23
2023-05-05T07:02:16.473Z,16.30
2023-05-05T07:04:43.977Z,16.39
2023-05-05T07:07:10.459Z,16.58
2023-05-05T07:09:36.994Z,16.70
2023-05-05T07:12:03.699Z,16.79
2023-05-05T07:14:30.661Z,16.92
2023-05-05T07:16:57.259Z,16.89
2023-05-05T07:19:23.793Z,16.86
2023-05-05T07:21:50.432Z,16.88
2023-05-05T07:24:16.873Z,16.97
2023-05-05T07:26:43.504Z,16.94
2023-05-05T07:29:09.982Z,17.05
2023-05-05T07:31:36.547Z,17.10
2023-05-05T07:34:03.079Z,17.11
2023-05-05T07:36:29.581Z,17.12
2023-05-05T07:38:57.153Z,17.17
2023-05-05T07:41:23.622Z,17.16
2023-05-05T07:43:50.066Z,17.06
2023-05-05T07:46:16.533Z,17.16
2023-05-05T07:48:43.179Z,17.16
2023-05-05T07:51:10.820Z,17.25
2023-05-05T07:53:37.510Z,17.25
2023-05-05T07:56:04.152Z,17.35
2023-05-05T07:58:30.722Z,17.45
2023-05-05T08:00:57.286Z,17.51
2023-05-05T08:03:26.695Z,17.51
2023-05-05T08:05:55.001Z,17.53
2023-05-05T08:08:24.540Z,17.60
2023-05-05T08:10:52.923Z,17.57
2023-05-05T08:13:19.463Z,17.56
2023-05-05T08:15:45.986Z,17.61
2023-05-05T08:18:12.468Z,17.68
2023-05-05T08:20:38.970Z,17.63
2023-05-05T08:23:05.474Z,17.63
2023-05-05T08:25:31.933Z,17.63
2023-05-05T08:27:58.396Z,17.76
2023-05-05T08:30:24.881Z,17.93
2023-05-05T08:32:51.350Z,18.05
2023-05-05T08:35:18.012Z,18.00
2023-05-05T08:37:44.551Z,18.04
2023-05-05T08:40:14.691Z,18.03
2023-05-05T08:42:41.983Z,18.08
2023-05-05T08:45:10.456Z,18.12
2023-05-05T08:47:38.393Z,18.18
2023-05-05T08:50:05.940Z,18.14
2023-05-05T08:52:44.557Z,18.08
2023-05-05T08:55:28.052Z,18.23
2023-05-05T08:57:58.309Z,18.37
2023-05-05T09:00:26.942Z,18.40
2023-05-05T09:02:57.212Z,18.51
2023-05-05T09:05:25.164Z,18.60
2023-05-05T09:07:51.781Z,18.36
2023-05-05T09:10:18.882Z,18.46
2023-05-05T09:12:45.550Z,18.53
2023-05-05T09:15:14.077Z,18.70
2023-05-05T09:17:41.806Z,18.79
2023-05-05T09:20:11.163Z,18.89
2023-05-05T09:22:39.101Z,19.18
2023-05-05T09:25:07.399Z,19.46
2023-05-05T09:27:39.013Z,19.75
2023-05-05T09:30:06.554Z,19.89
2023-05-05T09:32:50.000Z,19.92
2023-05-05T09:35:17.471Z,20.12
2023-05-05T09:37:44.650Z,20.25
2023-05-05T09:40:13.625Z,19.96
2023-05-05T09:42:42.038Z,20.04
2023-05-05T09:45:17.737Z,19.99
2023-05-05T09:47:46.045Z,20.21
2023-05-05T09:50:16.003Z,20.40
2023-05-05T09:52:43.258Z,20.57
2023-05-05T09:55:18.822Z,20.79
2023-05-05T09:57:47.253Z,20.75
2023-05-05T10:00:14.688Z,20.30
2023-05-05T10:02:41.953Z,20.14
2023-05-05T10:05:13.067Z,20.38
2023-05-05T10:07:41.922Z,20.19
2023-05-05T10:12:37.726Z,20.09
2023-05-05T10:15:06.230Z,20.14
2023-05-05T10:17:36.702Z,20.20
2023-05-05T10:20:04.055Z,20.31
2023-05-05T10:22:35.030Z,20.36
2023-05-05T10:25:09.754Z,20.39
2023-05-05T10:27:44.782Z,20.32
2023-05-05T10:30:22.475Z,20.42
2023-05-05T10:33:07.998Z,20.36
2023-05-05T10:35:43.511Z,20.12
2023-05-05T10:38:12.554Z,20.37
2023-05-05T10:40:48.924Z,20.61
2023-05-05T10:43:15.872Z,20.85
2023-05-05T10:45:43.383Z,21.12
2023-05-05T10:48:21.109Z,21.33
2023-05-05T10:51:06.136Z,21.43
2023-05-05T10:53:41.307Z,21.57
2023-05-05T10:56:13.758Z,21.72
2023-05-05T10:58:59.017Z,21.88
2023-05-05T11:01:35.649Z,21.86
2023-05-05T11:04:22.055Z,21.74
2023-05-05T11:07:14.448Z,21.77
2023-05-05T11:10:02.029Z,21.97
2023-05-05T11:12:30.028Z,22.01
2023-05-05T11:15:31.727Z,22.18
2023-05-05T11:17:59.632Z,22.38
2023-05-05T11:20:35.355Z,22.50
2023-05-05T11:23:05.172Z,22.48
2023-05-05T11:25:52.543Z,22.59
2023-05-05T11:28:29.865Z,22.79
2023-05-05T11:30:56.911Z,23.01
2023-05-05T11:33:38.230Z,23.10
2023-05-05T11:36:09.450Z,23.14
2023-05-05T11:38:38.939Z,22.87
2023-05-05T11:41:23.782Z,22.87
2023-05-05T11:43:50.362Z,22.79
2023-05-05T11:46:17.299Z,22.20
2023-05-05T11:48:52.918Z,21.73
2023-05-05T11:51:19.372Z,21.58
2023-05-05T11:53:47.734Z,21.45
2023-05-05T11:56:22.449Z,21.40
2023-05-05T11:59:04.691Z,21.32
2023-05-05T12:01:31.266Z,21.17
2023-05-05T12:03:58.048Z,20.79
2023-05-05T12:06:24.701Z,20.73
2023-05-05T12:08:51.283Z,20.54
2023-05-05T12:11:18.512Z,20.39
2023-05-05T12:13:45.114Z,20.24
2023-05-05T12:16:15.692Z,20.06
2023-05-05T12:18:42.921Z,20.00
2023-05-05T12:21:19.263Z,19.74
2023-05-05T12:23:46.236Z,19.22
2023-05-05T12:26:32.026Z,18.45
2023-05-05T12:28:59.389Z,17.36
2023-05-05T12:31:35.979Z,16.61
2023-05-05T12:34:03.531Z,16.40
2023-05-05T12:36:31.012Z,16.13
2023-05-05T12:38:57.983Z,15.85
2023-05-05T12:41:24.972Z,15.62
2023-05-05T12:43:58.855Z,15.46
2023-05-05T12:46:26.479Z,15.30
2023-05-05T12:49:01.536Z,15.15
2023-05-05T12:51:28.174Z,15.06
2023-05-05T12:54:09.886Z,15.08
2023-05-05T12:56:41.397Z,15.12
2023-05-05T12:59:09.758Z,15.19
2023-05-05T13:01:47.721Z,15.26
2023-05-05T13:04:15.078Z,15.34
2023-05-05T13:06:44.399Z,15.43
2023-05-05T13:09:35.714Z,15.53
2023-05-05T13:12:03.766Z,15.57
2023-05-05T13:14:31.865Z,15.66
2023-05-05T13:16:58.374Z,15.70
2023-05-05T13:19:25.123Z,15.68
2023-05-05T13:21:52.696Z,15.77
2023-05-05T13:24:31.173Z,15.83
2023-05-05T13:27:05.074Z,16.01
2023-05-05T13:29:32.698Z,16.01
2023-05-05T13:31:59.520Z,16.13
2023-05-05T13:34:26.348Z,16.20
2023-05-05T13:36:52.955Z,16.21
2023-05-05T13:39:19.634Z,16.30
2023-05-05T13:41:46.209Z,16.25
2023-05-05T13:44:13.799Z,16.21
2023-05-05T13:46:41.721Z,16.32
2023-05-05T13:49:08.239Z,16.28
2023-05-05T13:51:34.922Z,16.22
2023-05-05T13:54:01.588Z,16.21
2023-05-05T13:56:28.242Z,16.29
2023-05-05T13:58:54.886Z,16.36
2023-05-05T14:01:21.422Z,16.51
2023-05-05T14:03:48.009Z,16.54
2023-05-05T14:06:14.591Z,16.63
2023-05-05T14:08:41.606Z,16.88
2023-05-05T14:11:08.094Z,16.87
2023-05-05T14:13:34.587Z,16.86
2023-05-05T14:16:01.158Z,16.88
2023-05-05T14:18:28.255Z,16.78
2023-05-05T14:20:54.805Z,16.76
2023-05-05T14:23:21.384Z,16.76
2023-05-05T14:25:47.896Z,16.80
2023-05-05T14:28:14.405Z,16.93
2023-05-05T14:30:40.883Z,16.90
2023-05-05T14:33:07.438Z,16.92
2023-05-05T14:35:34.304Z,16.88
2023-05-05T14:38:00.772Z,16.80
2023-05-05T14:40:29.421Z,16.86
2023-05-05T14:42:55.965Z,16.84
2023-05-05T14:45:22.466Z,16.69
2023-05-05T14:47:49.131Z,16.57
2023-05-05T14:50:15.730Z,16.50
2023-05-05T14:52:44.318Z,16.30
2023-05-05T14:55:11.272Z,15.98
2023-05-05T14:57:38.684Z,15.76
2023-05-05T15:00:06.966Z,15.48
2023-05-05T15:02:33.739Z,15.23
2023-05-05T15:05:00.356Z,15.00
2023-05-05T15:07:28.587Z,14.73
2023-05-05T15:09:58.552Z,14.68
2023-05-05T15:12:25.987Z,14.56
2023-05-05T15:14:52.626Z,14.43
2023-05-05T15:17:19.264Z,14.37
2023-05-05T15:19:45.779Z,14.29
2023-05-05T15:22:12.275Z,14.26
2023-05-05T15:24:38.792Z,14.13
2023-05-05T15:27:05.343Z,14.11
2023-05-05T15:29:32.005Z,14.06
2023-05-05T15:31:58.623Z,14.06
2023-05-05T15:34:25.105Z,14.05
2023-05-05T15:36:51.713Z,14.05
2023-05-05T15:39:18.706Z,13.97
2023-05-05T15:41:45.516Z,14.00
2023-05-05T15:44:12.385Z,14.04
2023-05-05T15:46:39.205Z,13.98
2023-05-05T15:49:05.829Z,14.00
2023-05-05T15:51:32.352Z,14.01
2023-05-05T15:53:59.425Z,13.99
2023-05-05T15:56:27.505Z,13.97
2023-05-05T15:58:54.354Z,13.93
2023-05-05T16:01:21.049Z,13.88
2023-05-05T16:03:47.611Z,13.90
2023-05-05T16:06:14.122Z,13.88
2023-05-05T16:08:40.784Z,13.90
2023-05-05T16:11:07.275Z,13.89
2023-05-05T16:13:33.811Z,13.88
2023-05-05T16:16:00.313Z,13.88
2023-05-05T16:18:26.767Z,13.87
2023-05-05T16:20:53.307Z,13.88
2023-05-05T16:23:19.769Z,13.92
2023-05-05T16:25:46.262Z,13.93
2023-05-05T16:28:12.780Z,13.89
2023-05-05T16:30:39.867Z,13.88
2023-05-05T16:33:06.810Z,13.89
2023-05-05T16:35:33.447Z,13.81
2023-05-05T16:37:59.962Z,13.79
2023-05-05T16:40:26.407Z,13.80
2023-05-05T16:42:52.968Z,13.79
2023-05-05T16:45:19.531Z,13.87
2023-05-05T16:47:45.994Z,14.00
2023-05-05T16:50:12.631Z,14.19
2023-05-05T16:52:39.131Z,14.35
2023-05-05T16:55:05.952Z,14.44
2023-05-05T16:57:32.493Z,14.48
2023-05-05T16:59:59.047Z,14.49
2023-05-05T17:02:28.316Z,14.44
2023-05-05T17:04:54.834Z,14.40
2023-05-05T17:07:21.499Z,14.38
2023-05-05T17:09:48.147Z,14.34
2023-05-05T17:12:14.590Z,14.35
2023-05-05T17:14:41.785Z,14.38
2023-05-05T17:17:08.321Z,14.37
2023-05-05T17:19:34.866Z,14.33
2023-05-05T17:22:01.457Z,14.20
2023-05-05T17:24:27.909Z,14.10
2023-05-05T17:26:55.310Z,14.00
2023-05-05T17:29:23.185Z,13.97
2023-05-05T17:31:50.544Z,13.87
2023-05-05T17:34:17.158Z,13.82
2023-05-05T17:36:43.715Z,13.77
2023-05-05T17:39:11.387Z,13.74
2023-05-05T17:41:37.975Z,13.69
2023-05-05T17:44:04.555Z,13.63
2023-05-05T17:46:31.016Z,13.56
2023-05-05T17:48:57.545Z,13.47
2023-05-05T17:51:24.007Z,13.43
2023-05-05T17:53:50.459Z,13.43
2023-05-05T17:56:17.142Z,13.43
2023-05-05T17:58:43.653Z,13.42
2023-05-05T18:01:19.263Z,13.40
2023-05-05T18:03:45.942Z,13.40
2023-05-05T18:06:12.427Z,13.44
2023-05-05T18:08:38.874Z,13.43
2023-05-05T18:11:05.413Z,13.36
2023-05-05T18:13:34.932Z,13.40
2023-05-05T18:16:02.818Z,13.40
2023-05-05T18:18:29.632Z,13.37
2023-05-05T18:20:56.107Z,13.36
2023-05-05T18:23:22.716Z,13.32
2023-05-05T18:25:49.223Z,13.35
2023-05-05T18:28:15.729Z,13.31
2023-05-05T18:30:42.189Z,13.28
2023-05-05T18:33:08.708Z,13.24
2023-05-05T18:35:35.583Z,13.21
2023-05-05T18:38:03.315Z,13.21
2023-05-05T18:40:29.852Z,13.21
2023-05-05T18:42:56.915Z,13.16
2023-05-05T18:45:23.627Z,13.15
2023-05-05T18:47:50.134Z,13.15
2023-05-05T18:50:16.797Z,13.13
2023-05-05T18:52:43.220Z,13.10
2023-05-05T18:55:10.127Z,13.09
2023-05-05T18:57:36.838Z,13.09
2023-05-05T19:00:03.539Z,13.05
2023-05-05T19:02:30.112Z,13.02
2023-05-05T19:04:56.712Z,13.03
2023-05-05T19:07:34.377Z,13.00
2023-05-05T19:10:01.822Z,12.86
2023-05-05T19:12:28.262Z,12.77
2023-05-05T19:14:54.751Z,12.77
2023-05-05T19:17:21.270Z,12.72
2023-05-05T19:19:47.732Z,12.74
2023-05-05T19:22:17.502Z,12.72
2023-05-05T19:24:50.064Z,12.63
2023-05-05T19:27:17.093Z,12.62
2023-05-05T19:29:43.800Z,12.61
2023-05-05T19:32:10.526Z,12.62
2023-05-05T19:34:37.154Z,12.57
2023-05-05T19:37:03.704Z,12.49
2023-05-05T19:39:30.213Z,12.41
2023-05-05T19:41:56.682Z,12.41
2023-05-05T19:44:23.754Z,12.34
2023-05-05T19:46:50.466Z,12.26
2023-05-05T19:49:16.951Z,12.22
2023-05-05T19:51:43.833Z,12.19
2023-05-05T19:54:10.408Z,12.15
2023-05-05T19:56:37.012Z,12.11
2023-05-05T19:59:05.269Z,12.10
2023-05-05T20:01:33.783Z,12.11
2023-05-05T20:04:00.791Z,12.10
2023-05-05T20:06:27.445Z,12.12
2023-05-05T20:08:55.120Z,12.11
2023-05-05T20:11:25.859Z,12.10
2023-05-05T20:13:53.078Z,12.10
2023-05-05T20:16:19.994Z,12.11
2023-05-05T20:18:46.677Z,12.15
2023-05-05T20:21:13.350Z,12.16
2023-05-05T20:23:39.958Z,12.14
2023-05-05T20:26:07.644Z,12.11
2023-05-05T20:28:34.262Z,12.09
2023-05-05T20:31:00.910Z,12.06
2023-05-05T20:33:30.349Z,11.99
2023-05-05T20:35:56.808Z,12.02
2023-05-05T20:38:23.436Z,11.96
2023-05-05T20:40:50.429Z,11.92
2023-05-05T20:43:16.888Z,11.85
2023-05-05T20:45:43.396Z,11.81
2023-05-05T20:48:11.337Z,11.78
2023-05-05T20:50:38.698Z,11.69
2023-05-05T20:53:07.772Z,11.65
2023-05-05T20:55:34.330Z,11.60
2023-05-05T20:58:00.942Z,11.59
2023-05-05T21:00:27.619Z,11.58
2023-05-05T21:02:54.319Z,11.57
2023-05-05T21:05:21.015Z,11.54
2023-05-05T21:07:47.542Z,11.47
2023-05-05T21:10:14.050Z,11.44
2023-05-05T21:12:41.393Z,11.44
2023-05-05T21:15:08.880Z,11.42
2023-05-05T21:17:36.267Z,11.41
2023-05-05T21:20:02.923Z,11.34
2023-05-05T21:22:31.900Z,11.30
2023-05-05T21:25:10.078Z,11.27
2023-05-05T21:27:36.529Z,11.25
2023-05-05T21:30:03.080Z,11.13
2023-05-05T21:32:29.601Z,11.15
2023-05-05T21:34:56.226Z,11.11
2023-05-05T21:37:22.709Z,11.07
2023-05-05T21:39:49.609Z,11.03
2023-05-05T21:42:16.152Z,11.02
2023-05-05T21:44:42.611Z,11.01
2023-05-05T21:47:09.688Z,10.96
2023-05-05T21:49:36.185Z,10.92
2023-05-05T21:52:02.648Z,10.87
2023-05-05T21:54:29.996Z,10.79
2023-05-05T21:56:56.481Z,10.76
2023-05-05T21:59:22.906Z,10.70
2023-05-05T22:01:49.651Z,10.73
2023-05-05T22:04:16.153Z,10.69
2023-05-05T22:06:42.654Z,10.66
2023-05-05T22:09:09.122Z,10.62
2023-05-05T22:11:35.720Z,10.58
2023-05-05T22:14:02.290Z,10.59
2023-05-05T22:16:28.784Z,10.55
2023-05-05T22:18:55.301Z,10.54
2023-05-05T22:21:22.085Z,10.52
2023-05-05T22:23:48.525Z,10.48
2023-05-05T22:26:14.991Z,10.40
2023-05-05T22:28:41.621Z,10.43
2023-05-05T22:31:08.058Z,10.40
2023-05-05T22:33:36.049Z,10.37
2023-05-05T22:36:02.637Z,10.36
2023-05-05T22:38:29.243Z,10.35
2023-05-05T22:40:55.719Z,10.23
2023-05-05T22:43:22.139Z,10.16
2023-05-05T22:45:48.684Z,10.10
2023-05-05T22:48:15.127Z,10.12
2023-05-05T22:50:41.618Z,10.14
2023-05-05T22:53:08.084Z,10.18
2023-05-05T22:55:34.565Z,10.20
2023-05-05T22:58:01.033Z,10.20
2023-05-05T23:00:28.270Z,10.20
2023-05-05T23:02:55.079Z,10.24
2023-05-05T23:05:22.008Z,10.23
2023-05-05T23:07:48.585Z,10.23
2023-05-05T23:10:15.060Z,10.18
2023-05-05T23:12:41.550Z,10.05
2023-05-05T23:15:08.745Z,10.02
2023-05-05T23:17:35.337Z,10.04
2023-05-05T23:20:02.585Z,10.07
2023-05-05T23:22:29.041Z,9.99
2023-05-05T23:24:55.561Z,9.95
2023-05-05T23:27:22.968Z,9.89
2023-05-05T23:29:49.435Z,9.92
2023-05-05T23:32:16.070Z,9.93
2023-05-05T23:34:42.524Z,9.97
2023-05-05T23:37:08.988Z,9.99
2023-05-05T23:39:35.443Z,9.99
2023-05-05T23:42:01.949Z,9.95
2023-05-05T23:44:28.421Z,9.96
2023-05-05T23:46:54.855Z,9.91
2023-05-05T23:49:21.421Z,9.90
2023-05-05T23:51:47.906Z,9.89
2023-05-05T23:54:14.374Z,9.88
2023-05-05T23:56:41.089Z,9.87
2023-05-05T23:59:07.518Z,9.85
